createdAt,value
2019-03-31T00:25:35.349Z,4.21
2019-03-31T00:28:05.691Z,4.17
2019-03-31T00:30:36.061Z,4.51
2019-03-31T00:33:06.748Z,4.44
2019-03-31T00:35:37.079Z,4.60
2019-03-31T00:38:07.395Z,4.64
2019-03-31T00:40:37.725Z,4.63
2019-03-31T00:43:08.104Z,4.65
2019-03-31T00:45:39.012Z,4.79
2019-03-31T00:48:09.222Z,4.66
2019-03-31T00:50:39.492Z,4.43
2019-03-31T00:53:09.888Z,4.29
2019-03-31T00:55:40.199Z,4.08
2019-03-31T00:58:10.521Z,3.97
2019-03-31T01:00:59.893Z,4.00
2019-03-31T01:03:32.209Z,4.04
2019-03-31T01:06:02.658Z,4.07
2019-03-31T01:08:35.092Z,4.05
2019-03-31T01:11:17.208Z,4.27
2019-03-31T01:13:48.105Z,4.36
2019-03-31T01:16:18.807Z,4.49
2019-03-31T01:18:49.596Z,4.47
2019-03-31T01:21:19.846Z,4.34
2019-03-31T02:24:26.903Z,4.19
2019-03-31T02:26:57.247Z,4.17
2019-03-31T02:29:27.718Z,4.24
2019-03-31T02:31:58.201Z,4.22
2019-03-31T02:34:28.469Z,4.27
2019-03-31T02:36:58.601Z,4.43
2019-03-31T02:39:29.062Z,4.46
2019-03-31T02:41:59.223Z,4.66
2019-03-31T02:44:29.568Z,4.72
2019-03-31T02:46:59.930Z,4.73
2019-03-31T02:49:30.259Z,4.74
2019-03-31T02:52:00.661Z,4.83
2019-03-31T02:54:31.206Z,4.73
2019-03-31T02:57:01.913Z,4.43
2019-03-31T02:59:35.222Z,4.35
2019-03-31T03:02:05.645Z,4.51
2019-03-31T03:04:39.344Z,4.25
2019-03-31T03:07:10.547Z,3.95
2019-03-31T03:09:42.269Z,3.85
2019-03-31T03:12:13.933Z,3.80
2019-03-31T03:14:45.185Z,4.09
2019-03-31T03:17:15.614Z,4.17
2019-03-31T03:19:45.997Z,4.35
2019-03-31T03:22:16.453Z,4.35
2019-03-31T04:25:32.921Z,3.06
2019-03-31T04:28:03.114Z,3.07
2019-03-31T04:30:33.563Z,3.15
2019-03-31T04:33:03.933Z,3.32
2019-03-31T04:35:34.119Z,3.54
2019-03-31T04:38:04.524Z,3.78
2019-03-31T04:40:34.785Z,4.42
2019-03-31T04:43:05.187Z,4.63
2019-03-31T04:45:35.629Z,5.03
2019-03-31T04:48:06.107Z,5.26
2019-03-31T04:50:36.476Z,5.33
2019-03-31T04:53:07.014Z,5.51
2019-03-31T04:55:37.403Z,5.67
2019-03-31T04:58:07.748Z,5.83
2019-03-31T05:00:38.979Z,5.97
2019-03-31T05:03:09.329Z,6.06
2019-03-31T05:05:39.636Z,6.19
2019-03-31T05:08:09.988Z,6.28
2019-03-31T05:10:40.391Z,6.36
2019-03-31T05:13:10.605Z,6.44
2019-03-31T05:15:40.869Z,6.56
2019-03-31T05:18:11.252Z,6.65
2019-03-31T05:20:41.620Z,6.74
2019-03-31T05:23:12.128Z,6.77
2019-03-31T05:29:17.842Z,6.88
2019-03-31T05:31:48.079Z,6.88
2019-03-31T05:34:19.642Z,6.96
2019-03-31T05:36:50.247Z,7.00
2019-03-31T05:39:20.800Z,7.06
2019-03-31T05:41:51.141Z,7.14
2019-03-31T05:44:21.628Z,7.15
2019-03-31T05:46:51.850Z,7.27
2019-03-31T05:49:22.225Z,7.37
2019-03-31T05:51:52.450Z,7.57
2019-03-31T05:54:22.634Z,7.77
2019-03-31T05:56:53.002Z,7.93
2019-03-31T05:59:23.503Z,8.03
2019-03-31T06:01:54.874Z,8.28
2019-03-31T06:04:33.178Z,8.40
2019-03-31T06:06:57.166Z,8.59
2019-03-31T06:09:27.562Z,8.64
2019-03-31T06:11:57.861Z,8.69
2019-03-31T06:14:28.154Z,8.85
2019-03-31T06:16:58.483Z,8.97
2019-03-31T06:19:28.761Z,9.20
2019-03-31T06:21:59.020Z,9.41
2019-03-31T06:24:29.405Z,9.49
2019-03-31T06:27:00.016Z,9.33
2019-03-31T06:29:30.247Z,9.46
2019-03-31T06:32:00.542Z,9.37
2019-03-31T06:34:30.867Z,9.54
2019-03-31T06:37:02.457Z,9.68
2019-03-31T06:39:34.389Z,9.83
2019-03-31T06:42:04.734Z,9.97
2019-03-31T06:44:37.967Z,10.28
2019-03-31T06:47:07.059Z,10.47
2019-03-31T06:49:37.329Z,10.54
2019-03-31T06:52:07.813Z,10.64
2019-03-31T06:54:38.086Z,10.72
2019-03-31T06:57:08.573Z,10.81
2019-03-31T06:59:38.936Z,10.76
2019-03-31T07:02:09.325Z,10.76
2019-03-31T07:04:40.816Z,10.91
2019-03-31T07:07:11.251Z,11.04
2019-03-31T07:09:41.566Z,11.06
2019-03-31T07:12:11.958Z,10.99
2019-03-31T07:14:42.350Z,11.03
2019-03-31T07:17:12.716Z,10.99
2019-03-31T07:19:43.043Z,10.90
2019-03-31T07:22:13.315Z,11.13
2019-03-31T07:46:39.209Z,11.61
2019-03-31T07:49:09.580Z,11.56
2019-03-31T07:51:39.852Z,11.55
2019-03-31T07:54:10.403Z,11.64
2019-03-31T07:56:40.868Z,11.70
2019-03-31T07:59:11.055Z,11.85
2019-03-31T08:01:41.533Z,11.88
2019-03-31T08:04:13.847Z,11.77
2019-03-31T08:06:44.161Z,11.91
2019-03-31T08:09:14.389Z,11.96
2019-03-31T08:11:44.751Z,12.07
2019-03-31T08:14:15.116Z,12.10
2019-03-31T08:16:45.499Z,12.14
2019-03-31T08:19:16.930Z,12.14
2019-03-31T08:21:47.534Z,12.17
2019-03-31T08:24:17.777Z,12.17
2019-03-31T08:26:48.269Z,12.20
2019-03-31T08:29:18.465Z,12.08
2019-03-31T08:31:48.822Z,11.97
2019-03-31T08:34:19.191Z,11.94
2019-03-31T08:36:49.404Z,11.92
2019-03-31T08:39:19.911Z,11.95
2019-03-31T08:41:51.299Z,11.87
2019-03-31T08:44:21.610Z,12.02
2019-03-31T08:46:52.003Z,12.02
2019-03-31T08:49:22.404Z,12.06
2019-03-31T08:51:52.759Z,12.04
2019-03-31T08:54:22.983Z,12.17
2019-03-31T08:56:53.296Z,12.33
2019-03-31T08:59:23.621Z,12.28
2019-03-31T09:01:53.977Z,12.31
2019-03-31T09:04:24.610Z,12.50
2019-03-31T09:06:55.171Z,12.53
2019-03-31T09:09:25.490Z,12.36
2019-03-31T09:11:55.932Z,12.30
2019-03-31T09:14:26.146Z,12.36
2019-03-31T09:16:56.587Z,12.41
2019-03-31T09:19:26.798Z,12.33
2019-03-31T09:21:57.189Z,12.26
2019-03-31T10:26:00.045Z,12.68
2019-03-31T10:28:30.227Z,12.70
2019-03-31T10:31:00.696Z,12.91
2019-03-31T10:33:30.788Z,13.01
2019-03-31T10:36:01.150Z,12.95
2019-03-31T10:38:31.345Z,12.76
2019-03-31T10:41:01.831Z,12.54
2019-03-31T10:43:32.214Z,12.72
2019-03-31T10:46:02.893Z,12.77
2019-03-31T10:48:33.224Z,12.85
2019-03-31T10:51:03.715Z,13.01
2019-03-31T10:53:33.920Z,13.01
2019-03-31T10:56:04.364Z,13.00
2019-03-31T10:58:34.541Z,12.92
2019-03-31T11:01:05.067Z,12.98
2019-03-31T11:03:35.448Z,12.88
2019-03-31T11:06:06.973Z,12.77
2019-03-31T11:08:37.264Z,12.97
2019-03-31T11:11:08.834Z,12.71
2019-03-31T11:13:39.251Z,12.63
2019-03-31T11:16:09.480Z,12.58
2019-03-31T11:18:39.851Z,12.59
2019-03-31T11:21:20.231Z,12.60
2019-03-31T11:44:27.703Z,13.21
2019-03-31T11:46:57.185Z,12.94
2019-03-31T11:49:27.336Z,13.11
2019-03-31T11:51:57.876Z,13.24
2019-03-31T11:54:28.357Z,13.32
2019-03-31T11:56:58.687Z,13.10
2019-03-31T11:59:28.896Z,13.36
2019-03-31T12:01:59.029Z,13.36
2019-03-31T12:04:29.360Z,13.05
2019-03-31T12:06:59.730Z,13.16
2019-03-31T12:09:30.016Z,13.25
2019-03-31T12:12:00.273Z,13.50
2019-03-31T12:14:30.718Z,13.43
2019-03-31T12:17:01.089Z,13.45
2019-03-31T12:19:31.311Z,13.46
2019-03-31T12:22:01.593Z,13.54
2019-03-31T12:24:32.071Z,13.45
2019-03-31T12:27:02.321Z,13.54
2019-03-31T12:29:32.627Z,13.63
2019-03-31T12:32:03.311Z,13.55
2019-03-31T12:34:33.674Z,13.69
2019-03-31T12:37:04.109Z,13.80
2019-03-31T12:39:34.455Z,13.61
2019-03-31T12:42:04.711Z,13.72
2019-03-31T12:44:35.055Z,13.62
2019-03-31T12:47:05.351Z,13.85
2019-03-31T12:49:35.726Z,13.96
2019-03-31T12:52:05.955Z,14.01
2019-03-31T12:54:36.342Z,14.12
2019-03-31T12:57:06.600Z,14.08
2019-03-31T12:59:36.960Z,13.91
2019-03-31T13:02:07.787Z,13.84
2019-03-31T13:04:38.036Z,14.27
2019-03-31T13:07:08.339Z,15.22
2019-03-31T13:09:38.707Z,16.21
2019-03-31T13:12:08.929Z,16.92
2019-03-31T13:14:39.312Z,18.55
2019-03-31T13:17:09.590Z,18.01
2019-03-31T13:19:39.770Z,18.02
2019-03-31T13:22:10.031Z,17.51
2019-03-31T14:24:59.498Z,17.13
2019-03-31T14:27:29.838Z,16.73
2019-03-31T14:30:00.402Z,16.38
2019-03-31T14:32:31.044Z,16.44
2019-03-31T14:35:01.383Z,16.42
2019-03-31T14:37:31.863Z,17.05
2019-03-31T14:40:03.300Z,17.22
2019-03-31T14:42:33.578Z,17.42
2019-03-31T14:45:04.075Z,17.35
2019-03-31T14:47:34.448Z,17.42
2019-03-31T14:50:05.168Z,16.61
2019-03-31T14:52:36.796Z,17.85
2019-03-31T14:55:07.124Z,17.69
2019-03-31T14:57:38.681Z,17.59
2019-03-31T15:00:14.925Z,16.99
2019-03-31T15:02:41.561Z,17.71
2019-03-31T15:05:13.314Z,17.78
2019-03-31T15:07:43.669Z,17.52
2019-03-31T15:10:14.024Z,17.71
2019-03-31T15:12:44.360Z,17.24
2019-03-31T15:15:14.579Z,17.30
2019-03-31T15:17:44.903Z,17.92
2019-03-31T15:20:15.711Z,17.91
2019-03-31T15:22:46.032Z,17.97
2019-03-31T16:23:58.440Z,11.82
2019-03-31T16:26:28.240Z,11.42
2019-03-31T16:28:58.010Z,11.01
2019-03-31T16:31:27.801Z,10.87
2019-03-31T16:33:57.677Z,10.78
2019-03-31T16:36:27.689Z,10.57
2019-03-31T16:38:57.446Z,10.38
2019-03-31T16:41:27.233Z,10.29
2019-03-31T16:43:57.106Z,9.98
2019-03-31T16:46:26.903Z,9.91
2019-03-31T16:48:56.758Z,9.95
2019-03-31T16:51:26.639Z,9.87
2019-03-31T16:53:56.773Z,9.86
2019-03-31T16:56:26.805Z,9.85
2019-03-31T16:58:56.704Z,9.78
2019-03-31T17:01:26.506Z,9.67
2019-03-31T17:03:56.171Z,9.69
2019-03-31T17:06:25.946Z,9.69
2019-03-31T17:08:55.835Z,9.69
2019-03-31T17:11:25.513Z,9.66
2019-03-31T17:13:55.284Z,9.56
2019-03-31T17:16:25.199Z,9.47
2019-03-31T17:18:55.038Z,9.46
2019-03-31T17:21:24.813Z,9.40
2019-03-31T18:25:17.233Z,7.99
2019-03-31T18:27:47.216Z,7.94
2019-03-31T18:30:17.455Z,7.63
2019-03-31T18:32:47.218Z,7.66
2019-03-31T18:35:17.197Z,7.56
2019-03-31T18:37:46.797Z,7.44
2019-03-31T18:40:16.867Z,7.50
2019-03-31T18:42:46.906Z,7.52
2019-03-31T18:45:17.907Z,7.53
2019-03-31T18:47:47.787Z,7.51
2019-03-31T18:50:17.494Z,7.62
2019-03-31T18:52:47.166Z,7.50
2019-03-31T18:55:34.643Z,7.33
2019-03-31T18:58:23.448Z,7.48
2019-03-31T19:01:16.380Z,7.55
2019-03-31T19:04:05.151Z,7.52
2019-03-31T19:06:56.713Z,7.51
2019-03-31T19:09:45.316Z,7.45
2019-03-31T19:12:21.864Z,7.33
2019-03-31T19:15:22.528Z,7.20
2019-03-31T19:18:09.683Z,7.28
2019-03-31T19:21:16.633Z,7.24
2019-03-31T20:26:05.253Z,6.44
2019-03-31T20:28:52.966Z,6.30
2019-03-31T20:31:47.758Z,6.35
2019-03-31T20:34:35.153Z,6.45
2019-03-31T20:37:23.877Z,6.62
2019-03-31T20:40:19.109Z,6.68
2019-03-31T20:43:05.652Z,6.65
2019-03-31T20:45:35.612Z,6.41
2019-03-31T20:48:06.957Z,6.51
2019-03-31T20:50:36.974Z,6.62
2019-03-31T20:53:06.999Z,6.68
2019-03-31T20:55:36.942Z,6.74
2019-03-31T20:58:06.693Z,6.52
2019-03-31T21:00:36.683Z,6.73
2019-03-31T21:03:06.433Z,6.93
2019-03-31T21:05:36.046Z,7.01
2019-03-31T21:08:06.004Z,6.81
2019-03-31T21:10:36.521Z,6.75
2019-03-31T21:13:06.308Z,6.55
2019-03-31T21:15:36.073Z,6.30
2019-03-31T21:18:05.858Z,5.81
2019-03-31T21:20:35.653Z,5.41
2019-03-31T21:23:05.453Z,5.17
2019-03-31T22:12:34.128Z,3.84
2019-03-31T22:15:04.070Z,3.97
2019-03-31T22:17:33.827Z,3.96
2019-03-31T22:20:04.950Z,4.02
2019-03-31T22:22:34.745Z,4.08
2019-03-31T22:25:05.145Z,4.09
2019-03-31T22:27:34.847Z,4.11
2019-03-31T22:30:04.963Z,4.28
2019-03-31T22:32:34.916Z,4.69
2019-03-31T22:35:04.926Z,4.71
2019-03-31T22:37:34.846Z,4.95
2019-03-31T22:40:04.837Z,5.04
2019-03-31T22:42:34.640Z,4.84
2019-03-31T22:45:04.627Z,4.53
2019-03-31T22:47:34.471Z,4.33
2019-03-31T22:50:04.292Z,4.29
2019-03-31T22:52:34.172Z,4.33
2019-03-31T22:55:04.025Z,4.44
2019-03-31T22:57:33.960Z,4.33
2019-03-31T23:00:04.016Z,4.19
2019-03-31T23:02:33.793Z,4.16
2019-03-31T23:05:20.235Z,4.13
2019-03-31T23:07:56.678Z,4.04
2019-03-31T23:10:26.374Z,4.04
2019-03-31T23:12:56.268Z,4.11
2019-03-31T23:15:26.029Z,4.19
2019-03-31T23:17:55.696Z,4.30
2019-03-31T23:20:25.508Z,4.47
2019-03-31T23:22:55.259Z,4.56
